Terminal Aerodrome Forecast
Issued by NWS

Home | Current Version | Previous Version | Text Only | Print | Product List | Glossary On
Versions: 1 2 3 4 5 6 7 8 9 10 11 12
000
FTUS42 KMLB 242339
TAFTIX
TAF
KTIX 242339Z 2500/2524 14014KT P6SM FEW030
     FM251500 18007KT P6SM SCT030
     FM251800 14010KT P6SM FEW035
      AMD NOT SKED 2502/2512=

USA.gov is the U.S. government's official web portal to all federal, state and local government web resources and services.